Time;durP1;ratioP1;P1;durP2;ratioP2;P2;SDS_P1;SDS_P2;PMS_P1;PMS_P2;Temp;Humidity;BMP_temperature;BMP_pressure;BME280_temperature;BME280_humidity;BME280_pressure;Samples;Min_cycle;Max_cycle;Signal;HPM_P1;HPM_P2
2024/01/15 00:00:14;;;;;;;9.93;2.10;;;1.30;99.90;;;;;;5107611;27;20032;-34
2024/01/15 00:02:40;;;;;;;11.18;1.90;;;1.40;99.90;;;;;;5125374;27;20092;-33
2024/01/15 00:05:06;;;;;;;10.02;2.20;;;1.40;99.90;;;;;;5124229;27;20043;-34
2024/01/15 00:07:31;;;;;;;11.27;2.45;;;1.40;99.90;;;;;;5117642;27;20497;-33
2024/01/15 00:09:57;;;;;;;7.35;2.10;;;1.40;99.90;;;;;;5129980;27;20091;-36
2024/01/15 00:12:23;;;;;;;8.73;2.40;;;1.40;99.90;;;;;;5108228;27;20031;-33
2024/01/15 00:14:48;;;;;;;9.00;2.90;;;1.30;99.90;;;;;;5119934;27;20040;-34
2024/01/15 00:17:14;;;;;;;6.22;1.95;;;1.30;99.90;;;;;;5092732;28;20047;-34
2024/01/15 00:19:40;;;;;;;11.57;2.20;;;1.40;99.90;;;;;;5122805;27;20069;-35
2024/01/15 00:22:05;;;;;;;6.25;2.45;;;1.40;99.90;;;;;;5123100;27;20042;-33
2024/01/15 00:24:31;;;;;;;9.15;2.42;;;1.50;99.90;;;;;;5112765;27;20509;-33
2024/01/15 00:26:57;;;;;;;12.27;2.03;;;1.40;99.90;;;;;;5118082;27;20130;-34
2024/01/15 00:29:23;;;;;;;12.02;2.58;;;1.50;99.90;;;;;;5111041;27;20047;-33
2024/01/15 00:31:48;;;;;;;11.35;2.10;;;1.40;99.90;;;;;;5109148;28;20055;-33
2024/01/15 00:34:14;;;;;;;9.75;2.40;;;1.50;99.90;;;;;;5105150;27;20092;-34
2024/01/15 00:36:40;;;;;;;9.82;2.35;;;1.50;99.90;;;;;;5113033;28;20035;-35
2024/01/15 00:39:06;;;;;;;12.55;2.35;;;1.40;99.90;;;;;;5118566;27;20117;-34
2024/01/15 00:41:32;;;;;;;12.88;2.50;;;1.40;99.90;;;;;;5106756;28;20058;-35
2024/01/15 00:43:57;;;;;;;14.80;2.50;;;1.50;99.90;;;;;;5127249;27;20046;-35
2024/01/15 00:46:23;;;;;;;8.25;2.53;;;1.40;99.90;;;;;;5107704;27;20036;-33
2024/01/15 00:48:49;;;;;;;6.40;1.67;;;1.30;99.90;;;;;;5127741;27;20039;-34
2024/01/15 00:51:14;;;;;;;8.52;1.83;;;1.30;99.90;;;;;;5108365;28;20039;-33
2024/01/15 00:53:40;;;;;;;15.27;2.80;;;1.30;99.90;;;;;;5119132;27;20043;-35
2024/01/15 00:56:06;;;;;;;14.07;3.00;;;1.30;99.90;;;;;;5122264;28;20047;-34
2024/01/15 00:58:31;;;;;;;8.05;2.05;;;1.30;99.90;;;;;;5116012;28;20398;-34
2024/01/15 01:00:57;;;;;;;11.75;2.63;;;1.30;99.90;;;;;;5110771;28;20123;-36
2024/01/15 01:03:23;;;;;;;8.27;1.98;;;1.30;99.90;;;;;;5115045;28;20040;-34
2024/01/15 01:05:52;;;;;;;11.15;2.60;;;1.30;99.90;;;;;;5108527;28;20036;-33
2024/01/15 01:08:18;;;;;;;8.82;1.90;;;1.40;99.90;;;;;;5121571;28;20114;-35
2024/01/15 01:10:43;;;;;;;12.63;2.53;;;1.40;99.90;;;;;;5111580;28;20099;-33
2024/01/15 01:13:09;;;;;;;9.30;2.88;;;1.40;99.90;;;;;;5113034;28;20044;-34
2024/01/15 01:15:35;;;;;;;13.60;2.63;;;1.40;99.90;;;;;;5120778;28;20035;-33
2024/01/15 01:18:01;;;;;;;14.35;3.05;;;1.40;99.90;;;;;;5122157;28;20063;-34
2024/01/15 01:20:27;;;;;;;6.75;2.40;;;1.50;99.90;;;;;;5112315;28;20043;-33
2024/01/15 01:22:52;;;;;;;14.48;2.58;;;1.50;99.90;;;;;;5111875;28;20040;-34
2024/01/15 01:25:18;;;;;;;9.75;2.17;;;1.60;99.90;;;;;;5116148;28;20039;-33
2024/01/15 01:27:44;;;;;;;9.38;1.80;;;1.70;99.90;;;;;;5119292;28;20126;-34
2024/01/15 01:30:10;;;;;;;14.35;2.88;;;1.80;99.90;;;;;;5114796;28;20085;-33
2024/01/15 01:32:35;;;;;;;11.20;2.33;;;1.80;99.90;;;;;;5117585;28;20051;-34
2024/01/15 01:35:01;;;;;;;9.57;2.00;;;1.80;99.90;;;;;;5123943;28;20043;-34
2024/01/15 01:37:27;;;;;;;6.57;1.95;;;1.80;99.90;;;;;;5117971;28;20039;-33
2024/01/15 01:39:53;;;;;;;8.10;1.98;;;1.90;99.90;;;;;;5115244;28;20032;-36
2024/01/15 01:42:19;;;;;;;12.25;2.10;;;1.90;99.90;;;;;;5117395;28;20387;-32
2024/01/15 01:44:44;;;;;;;13.20;2.67;;;1.90;99.90;;;;;;5122435;28;20407;-34
2024/01/15 01:47:10;;;;;;;7.55;1.92;;;1.80;99.90;;;;;;5114934;28;20040;-32
2024/01/15 01:49:37;;;;;;;12.70;2.25;;;1.90;99.90;;;;;;5100760;28;20040;-34
2024/01/15 01:52:05;;;;;;;8.35;1.85;;;1.90;99.90;;;;;;5114020;28;20514;-33
2024/01/15 01:54:32;;;;;;;11.73;2.35;;;1.90;99.90;;;;;;5106602;28;20447;-35
2024/01/15 01:56:58;;;;;;;6.65;1.70;;;1.90;99.90;;;;;;5113368;28;20440;-33
2024/01/15 01:59:27;;;;;;;9.02;1.80;;;1.80;99.90;;;;;;5105872;28;20102;-35
2024/01/15 02:01:54;;;;;;;9.98;1.85;;;1.80;99.90;;;;;;5116090;28;20039;-34
2024/01/15 02:04:21;;;;;;;4.80;1.55;;;1.70;99.90;;;;;;5084049;28;20036;-35
2024/01/15 02:06:48;;;;;;;5.72;1.13;;;1.70;99.90;;;;;;5098090;28;20048;-38
2024/01/15 02:09:15;;;;;;;4.00;1.20;;;1.70;99.90;;;;;;5127892;27;20054;-37
2024/01/15 02:11:42;;;;;;;6.10;1.33;;;1.70;99.90;;;;;;5125808;27;20045;-34
2024/01/15 02:14:09;;;;;;;7.28;1.17;;;1.60;99.90;;;;;;5119401;27;20044;-33
2024/01/15 02:16:34;;;;;;;7.43;1.52;;;1.50;99.90;;;;;;5115858;27;20390;-34
2024/01/15 02:19:00;;;;;;;3.15;1.13;;;1.60;99.90;;;;;;5104317;28;20040;-33
2024/01/15 02:21:28;;;;;;;8.15;1.45;;;1.50;99.90;;;;;;5109551;28;20044;-35
2024/01/15 02:23:54;;;;;;;5.53;2.03;;;1.50;99.90;;;;;;5123973;27;20047;-34
2024/01/15 02:26:21;;;;;;;8.45;1.70;;;1.40;99.90;;;;;;5115443;28;20040;-34
2024/01/15 02:28:48;;;;;;;9.20;1.92;;;1.50;99.90;;;;;;5116522;27;20437;-33
2024/01/15 02:31:14;;;;;;;9.95;1.85;;;1.50;99.90;;;;;;5122307;27;20062;-36
2024/01/15 02:33:42;;;;;;;4.90;1.42;;;1.50;99.90;;;;;;5111460;28;20079;-34
2024/01/15 02:36:08;;;;;;;6.15;1.60;;;1.50;99.90;;;;;;5115985;27;20114;-36
2024/01/15 02:38:33;;;;;;;7.13;1.50;;;1.60;99.90;;;;;;5091806;28;20036;-34
2024/01/15 02:40:59;;;;;;;5.40;1.65;;;1.60;99.90;;;;;;5113019;27;20046;-35
2024/01/15 02:43:25;;;;;;;5.78;1.65;;;1.60;99.90;;;;;;5111844;28;20036;-35
2024/01/15 02:45:51;;;;;;;7.43;1.20;;;1.60;99.90;;;;;;5119494;27;20031;-35
2024/01/15 02:48:16;;;;;;;5.30;1.25;;;1.70;99.90;;;;;;5113907;28;20039;-34
2024/01/15 02:50:42;;;;;;;4.30;1.02;;;1.70;99.90;;;;;;5099083;27;20042;-33
2024/01/15 02:53:08;;;;;;;8.10;1.73;;;1.70;99.90;;;;;;5121952;27;20043;-35
2024/01/15 02:55:34;;;;;;;5.97;1.63;;;1.80;99.90;;;;;;5115457;27;20031;-35
2024/01/15 02:57:59;;;;;;;3.97;0.95;;;1.70;99.90;;;;;;5123811;27;20046;-33
2024/01/15 03:00:25;;;;;;;4.70;1.00;;;1.70;99.90;;;;;;5123861;27;20057;-35
2024/01/15 03:02:51;;;;;;;4.70;1.58;;;1.70;99.90;;;;;;5125801;27;20067;-36
2024/01/15 03:05:17;;;;;;;7.05;1.23;;;1.80;99.90;;;;;;5107715;27;20074;-34
2024/01/15 03:07:43;;;;;;;6.40;1.33;;;1.70;99.90;;;;;;5124978;27;20035;-33
2024/01/15 03:10:09;;;;;;;3.97;1.00;;;1.80;99.90;;;;;;5107138;27;20051;-34
2024/01/15 03:12:35;;;;;;;6.47;1.00;;;1.80;99.90;;;;;;5116127;27;20036;-34
2024/01/15 03:15:03;;;;;;;4.90;1.65;;;1.90;99.90;;;;;;5115355;27;20533;-34
2024/01/15 03:17:29;;;;;;;4.95;1.10;;;1.90;99.90;;;;;;5126736;27;20051;-35
2024/01/15 03:19:56;;;;;;;6.60;1.40;;;1.90;99.90;;;;;;5114937;28;20042;-34
2024/01/15 03:22:21;;;;;;;5.65;1.35;;;1.90;99.90;;;;;;5114374;28;20036;-35
2024/01/15 03:24:48;;;;;;;5.65;2.03;;;1.80;99.90;;;;;;5116121;27;20032;-39
2024/01/15 03:27:14;;;;;;;8.35;1.55;;;1.80;99.90;;;;;;5132335;27;20043;-34
2024/01/15 03:29:45;;;;;;;10.50;1.77;;;1.80;99.90;;;;;;5111817;27;20032;-35
2024/01/15 03:32:11;;;;;;;7.00;1.13;;;1.80;99.90;;;;;;5073690;28;20048;-33
2024/01/15 03:34:37;;;;;;;4.20;0.93;;;1.70;99.90;;;;;;5069766;28;20458;-34
2024/01/15 03:37:03;;;;;;;5.07;1.33;;;1.70;99.90;;;;;;5070222;28;20037;-33
2024/01/15 03:39:29;;;;;;;5.18;1.33;;;1.70;99.90;;;;;;5069254;28;20522;-33
2024/01/15 03:41:55;;;;;;;3.67;1.65;;;1.70;99.90;;;;;;5066058;28;20037;-34
2024/01/15 03:44:21;;;;;;;3.92;1.60;;;1.60;99.90;;;;;;5067438;28;20122;-33
2024/01/15 03:46:47;;;;;;;2.92;1.73;;;1.60;99.90;;;;;;5062216;28;20126;-34
2024/01/15 03:49:12;;;;;;;7.35;1.15;;;1.60;99.90;;;;;;5072708;28;20055;-34
2024/01/15 03:51:38;;;;;;;4.47;0.80;;;1.50;99.90;;;;;;5069149;28;20029;-33
2024/01/15 03:54:04;;;;;;;7.28;1.25;;;1.50;99.90;;;;;;5071407;28;20039;-33
2024/01/15 03:56:30;;;;;;;5.95;1.52;;;1.50;99.90;;;;;;5066387;28;20432;-34
2024/01/15 03:58:55;;;;;;;8.80;1.77;;;1.60;99.90;;;;;;5063639;28;20048;-34
2024/01/15 04:01:21;;;;;;;7.85;1.52;;;1.70;99.90;;;;;;5069305;28;20532;-34
2024/01/15 04:03:47;;;;;;;5.53;1.63;;;1.70;99.90;;;;;;5072351;28;20573;-33
2024/01/15 04:06:13;;;;;;;14.18;1.63;;;1.70;99.90;;;;;;5072606;28;20036;-34
2024/01/15 04:08:38;;;;;;;7.40;1.85;;;1.70;99.90;;;;;;5072967;28;20074;-34
2024/01/15 04:11:04;;;;;;;9.65;2.70;;;1.70;99.90;;;;;;5068735;28;20041;-33
2024/01/15 04:13:33;;;;;;;8.63;2.88;;;1.70;99.90;;;;;;5072390;28;20561;-33
2024/01/15 04:16:00;;;;;;;8.45;2.10;;;1.70;99.90;;;;;;5067646;28;20051;-33
2024/01/15 04:18:26;;;;;;;9.60;1.65;;;1.70;99.90;;;;;;5073265;28;20297;-33
2024/01/15 04:20:51;;;;;;;6.70;1.83;;;1.70;99.90;;;;;;5071757;28;20472;-33
2024/01/15 04:23:17;;;;;;;9.30;2.00;;;1.70;99.90;;;;;;5072397;28;20054;-34
2024/01/15 04:25:43;;;;;;;10.38;1.95;;;1.70;99.90;;;;;;5071954;28;20048;-34
2024/01/15 04:28:12;;;;;;;13.70;2.00;;;1.70;99.90;;;;;;5066546;28;20041;-34
2024/01/15 04:30:38;;;;;;;8.75;2.35;;;1.70;99.90;;;;;;5087471;28;20047;-33
2024/01/15 04:33:04;;;;;;;11.20;2.10;;;1.70;99.90;;;;;;5121194;27;20525;-33
2024/01/15 04:35:31;;;;;;;8.10;2.25;;;1.80;99.90;;;;;;5115664;27;20046;-33
2024/01/15 04:37:56;;;;;;;8.27;2.03;;;1.70;99.90;;;;;;5112517;28;20035;-34
2024/01/15 04:40:22;;;;;;;10.45;2.05;;;1.80;99.90;;;;;;5108462;28;20040;-33
2024/01/15 04:42:48;;;;;;;10.00;2.08;;;1.80;99.90;;;;;;5111636;28;20044;-34
2024/01/15 04:45:14;;;;;;;6.03;2.10;;;1.80;99.90;;;;;;5097628;28;20068;-33
2024/01/15 04:47:40;;;;;;;8.05;1.70;;;1.80;99.90;;;;;;5125252;27;20467;-32
2024/01/15 04:50:06;;;;;;;9.93;1.98;;;1.80;99.90;;;;;;5122487;27;20111;-33
2024/01/15 04:52:32;;;;;;;15.00;2.28;;;1.80;99.90;;;;;;5089077;28;20545;-35
2024/01/15 04:54:58;;;;;;;9.93;1.90;;;1.80;99.90;;;;;;5102314;28;20047;-33
2024/01/15 04:57:23;;;;;;;11.85;2.08;;;1.70;99.90;;;;;;5113326;28;20028;-33
2024/01/15 04:59:49;;;;;;;6.82;2.50;;;1.70;99.90;;;;;;5119932;27;20035;-33
2024/01/15 05:02:15;;;;;;;11.43;1.83;;;1.80;99.90;;;;;;5101915;28;20560;-33
2024/01/15 05:04:41;;;;;;;11.05;2.63;;;1.80;99.90;;;;;;5107691;28;20043;-34
2024/01/15 05:07:06;;;;;;;8.85;2.47;;;1.80;99.90;;;;;;5115107;28;20043;-34
2024/01/15 05:09:32;;;;;;;11.23;1.83;;;1.80;99.90;;;;;;5113041;28;20122;-34
2024/01/15 05:11:58;;;;;;;11.02;2.13;;;1.80;99.90;;;;;;5109073;28;20043;-34
2024/01/15 05:14:23;;;;;;;8.20;2.08;;;1.90;99.90;;;;;;5113223;28;20042;-33
2024/01/15 05:16:50;;;;;;;8.02;2.22;;;1.90;99.90;;;;;;5112253;28;20043;-34
2024/01/15 05:19:16;;;;;;;8.68;1.80;;;1.80;99.90;;;;;;5118206;28;20391;-34
2024/01/15 05:21:42;;;;;;;11.13;2.00;;;1.80;99.90;;;;;;5122503;28;20504;-33
2024/01/15 05:24:08;;;;;;;12.43;1.85;;;1.80;99.90;;;;;;5116893;28;20035;-34
2024/01/15 05:26:34;;;;;;;10.88;2.10;;;1.80;99.90;;;;;;5101167;28;20101;-33
2024/01/15 05:29:00;;;;;;;9.38;2.00;;;1.70;99.90;;;;;;5112553;28;20043;-34
2024/01/15 05:31:26;;;;;;;8.45;2.08;;;1.60;99.90;;;;;;5112068;28;20043;-33
2024/01/15 05:33:51;;;;;;;11.98;2.38;;;1.60;99.90;;;;;;5112335;28;20058;-33
2024/01/15 05:36:17;;;;;;;10.57;2.20;;;1.60;99.90;;;;;;5107470;28;20027;-33
2024/01/15 05:38:43;;;;;;;7.85;1.70;;;1.50;99.90;;;;;;5125174;27;20036;-34
2024/01/15 05:41:08;;;;;;;13.02;2.63;;;1.50;99.90;;;;;;5114113;27;20071;-34
2024/01/15 05:43:34;;;;;;;8.07;2.05;;;1.40;99.90;;;;;;5116825;27;20372;-33
2024/01/15 05:46:00;;;;;;;8.20;2.05;;;1.40;99.90;;;;;;5117059;27;20039;-34
2024/01/15 05:48:26;;;;;;;10.60;2.50;;;1.30;99.90;;;;;;5122378;27;20031;-33
2024/01/15 05:50:51;;;;;;;9.60;2.15;;;1.30;99.90;;;;;;5116423;27;20044;-34
2024/01/15 05:53:17;;;;;;;6.63;1.83;;;1.30;99.90;;;;;;5108052;27;20487;-33
2024/01/15 05:55:43;;;;;;;6.20;1.90;;;1.40;99.90;;;;;;5119110;27;20071;-33
2024/01/15 05:58:08;;;;;;;6.70;2.00;;;1.40;99.90;;;;;;5116052;27;20047;-33
2024/01/15 06:00:35;;;;;;;9.02;1.92;;;1.40;99.90;;;;;;5124401;27;20031;-33
2024/01/15 06:03:01;;;;;;;10.18;1.55;;;1.50;99.90;;;;;;5109978;28;21139;-34
2024/01/15 06:05:27;;;;;;;9.75;2.22;;;1.50;99.90;;;;;;5127049;27;20185;-33
2024/01/15 06:07:53;;;;;;;8.43;1.88;;;1.50;99.90;;;;;;5097658;28;20073;-33
2024/01/15 06:10:19;;;;;;;6.43;1.70;;;1.50;99.90;;;;;;5121653;27;20498;-32
2024/01/15 06:12:45;;;;;;;8.82;3.20;;;1.50;99.90;;;;;;5112840;27;20032;-33
2024/01/15 06:15:11;;;;;;;7.70;1.95;;;1.40;99.90;;;;;;5123993;27;20122;-33
2024/01/15 06:17:37;;;;;;;11.98;2.22;;;1.40;99.90;;;;;;5115859;27;20063;-33
2024/01/15 06:20:04;;;;;;;7.30;1.70;;;1.40;99.90;;;;;;5094020;27;20464;-33
2024/01/15 06:22:29;;;;;;;11.80;2.30;;;1.40;99.90;;;;;;5119383;27;20134;-33
2024/01/15 06:24:55;;;;;;;10.52;2.10;;;1.30;99.90;;;;;;5097045;28;20047;-33
2024/01/15 06:27:21;;;;;;;7.38;1.90;;;1.30;99.90;;;;;;5115250;28;20122;-33
2024/01/15 06:29:47;;;;;;;8.70;1.98;;;1.20;99.90;;;;;;5107341;28;20039;-33
2024/01/15 06:32:13;;;;;;;5.82;1.65;;;1.20;99.90;;;;;;5121484;27;20040;-34
2024/01/15 06:34:39;;;;;;;7.25;2.25;;;1.20;99.90;;;;;;5117463;27;20123;-33
2024/01/15 06:37:05;;;;;;;9.35;1.70;;;1.20;99.90;;;;;;5125865;27;20067;-35
2024/01/15 06:39:31;;;;;;;4.28;1.70;;;1.30;99.90;;;;;;5111399;28;20410;-34
2024/01/15 06:41:56;;;;;;;9.32;2.50;;;1.30;99.90;;;;;;5116075;27;20137;-34
2024/01/15 06:44:22;;;;;;;4.65;1.10;;;1.20;99.90;;;;;;5119458;27;20048;-33
2024/01/15 06:46:48;;;;;;;7.70;1.80;;;1.20;99.90;;;;;;5125739;27;20482;-34
2024/01/15 06:49:14;;;;;;;6.07;1.73;;;1.30;99.90;;;;;;5114479;28;20436;-33
2024/01/15 06:51:40;;;;;;;7.10;1.90;;;1.20;99.90;;;;;;5113127;28;20173;-33
2024/01/15 06:54:06;;;;;;;6.78;1.77;;;1.20;99.90;;;;;;5116876;27;20048;-33
2024/01/15 06:56:32;;;;;;;7.70;1.55;;;1.20;99.90;;;;;;5124471;27;20054;-33
2024/01/15 06:58:58;;;;;;;5.72;1.30;;;1.10;99.90;;;;;;5117084;27;20113;-33
2024/01/15 07:01:24;;;;;;;10.40;2.20;;;1.10;99.90;;;;;;5119770;27;20042;-34
2024/01/15 07:03:50;;;;;;;5.15;1.02;;;1.10;99.90;;;;;;5118041;27;20039;-35
2024/01/15 07:06:16;;;;;;;5.43;1.67;;;1.00;99.90;;;;;;5113453;27;20100;-35
2024/01/15 07:08:42;;;;;;;5.75;1.20;;;1.00;99.90;;;;;;5124203;27;20099;-35
2024/01/15 07:11:08;;;;;;;6.03;1.30;;;1.00;99.90;;;;;;5113855;27;20047;-36
2024/01/15 07:13:36;;;;;;;7.75;1.42;;;1.00;99.90;;;;;;5127582;27;20043;-35
2024/01/15 07:16:02;;;;;;;6.82;2.33;;;0.90;99.90;;;;;;5124916;27;20123;-34
2024/01/15 07:18:28;;;;;;;8.95;2.00;;;1.00;99.90;;;;;;5122680;27;20126;-35
2024/01/15 07:20:53;;;;;;;9.50;1.85;;;0.90;99.90;;;;;;5131512;27;20040;-36
2024/01/15 07:23:19;;;;;;;7.85;1.45;;;1.00;99.90;;;;;;5129441;27;20035;-34
2024/01/15 07:25:45;;;;;;;9.85;1.88;;;1.00;99.90;;;;;;5117147;27;20047;-34
2024/01/15 07:28:11;;;;;;;8.38;2.08;;;1.00;99.90;;;;;;5124190;27;20043;-35
2024/01/15 07:30:38;;;;;;;9.18;1.80;;;1.10;99.90;;;;;;5120766;27;20055;-35
2024/01/15 07:33:05;;;;;;;8.68;1.65;;;1.10;99.90;;;;;;5102346;28;20043;-35
2024/01/15 07:35:31;;;;;;;7.68;1.63;;;1.20;99.90;;;;;;5116202;27;20469;-34
2024/01/15 07:37:57;;;;;;;8.23;1.45;;;1.20;99.90;;;;;;5131121;27;20114;-35
2024/01/15 07:40:22;;;;;;;12.65;2.78;;;1.20;99.90;;;;;;5129221;27;20118;-34
2024/01/15 07:42:48;;;;;;;8.52;2.03;;;1.30;99.90;;;;;;5115942;27;20494;-35
2024/01/15 07:45:14;;;;;;;7.53;1.83;;;1.30;99.90;;;;;;5128919;27;20035;-34
2024/01/15 07:47:40;;;;;;;8.15;1.70;;;1.20;99.90;;;;;;5127491;27;20036;-35
2024/01/15 07:50:05;;;;;;;9.50;1.98;;;1.30;99.90;;;;;;5123967;27;20047;-34
2024/01/15 07:52:31;;;;;;;6.65;1.60;;;1.20;99.90;;;;;;5106749;27;20035;-34
2024/01/15 07:54:59;;;;;;;14.13;2.05;;;1.20;99.90;;;;;;5128344;27;20029;-34
2024/01/15 07:57:25;;;;;;;7.85;1.63;;;1.10;99.90;;;;;;5098808;28;20050;-34
2024/01/15 07:59:51;;;;;;;6.22;2.20;;;1.00;99.90;;;;;;5129054;27;20043;-34
2024/01/15 08:02:17;;;;;;;9.77;1.70;;;1.00;99.90;;;;;;5122164;27;20031;-34
2024/01/15 08:04:43;;;;;;;9.20;1.48;;;0.90;99.90;;;;;;5123757;27;20039;-34
2024/01/15 08:07:08;;;;;;;9.43;2.20;;;0.90;99.90;;;;;;5112518;27;20042;-35
2024/01/15 08:09:34;;;;;;;15.70;2.15;;;0.90;99.90;;;;;;5110944;27;20040;-34
2024/01/15 08:12:00;;;;;;;6.35;1.92;;;1.00;99.90;;;;;;5119733;27;20039;-34
2024/01/15 08:14:26;;;;;;;9.15;2.97;;;1.00;99.90;;;;;;5121327;27;20035;-35
2024/01/15 08:16:52;;;;;;;13.77;5.78;;;1.00;99.90;;;;;;5124818;27;20046;-37
2024/01/15 08:19:19;;;;;;;8.80;3.17;;;1.10;99.90;;;;;;5114919;27;20027;-35
2024/01/15 08:21:45;;;;;;;15.13;5.72;;;1.00;99.90;;;;;;5107068;27;20110;-34
2024/01/15 08:24:11;;;;;;;8.68;3.08;;;1.10;99.90;;;;;;5115799;27;20613;-34
2024/01/15 08:26:37;;;;;;;15.32;5.45;;;1.00;99.90;;;;;;5117027;27;20050;-36
2024/01/15 08:29:03;;;;;;;8.48;3.75;;;1.00;99.90;;;;;;5125908;27;20043;-35
2024/01/15 08:31:28;;;;;;;12.88;6.93;;;1.00;99.90;;;;;;5084596;28;20495;-35
2024/01/15 08:33:55;;;;;;;9.68;2.92;;;1.00;99.90;;;;;;5087045;28;20050;-34
2024/01/15 08:36:24;;;;;;;13.98;3.35;;;1.00;99.90;;;;;;5062001;28;20214;-35
2024/01/15 08:38:50;;;;;;;9.88;3.10;;;1.00;99.90;;;;;;5070252;28;20044;-34
2024/01/15 08:41:15;;;;;;;9.63;2.72;;;1.10;99.90;;;;;;5073858;28;20036;-35
2024/01/15 08:43:41;;;;;;;7.72;3.67;;;1.10;99.90;;;;;;5060979;28;20038;-34
2024/01/15 08:46:07;;;;;;;10.32;2.20;;;1.20;99.90;;;;;;5054797;28;20049;-35
2024/01/15 08:48:32;;;;;;;10.23;2.53;;;1.30;99.90;;;;;;5084126;28;20086;-35
2024/01/15 08:50:58;;;;;;;7.80;1.75;;;1.50;99.90;;;;;;5080610;28;20040;-35
2024/01/15 08:53:24;;;;;;;7.85;2.58;;;1.60;99.90;;;;;;5078042;28;20033;-36
2024/01/15 08:55:50;;;;;;;14.93;3.20;;;1.70;99.90;;;;;;5079928;28;20041;-36
2024/01/15 08:58:16;;;;;;;12.10;2.30;;;1.70;99.90;;;;;;5075625;28;20040;-36
2024/01/15 09:00:42;;;;;;;9.77;2.25;;;1.70;99.90;;;;;;5088007;28;20036;-34
2024/01/15 09:03:08;;;;;;;6.97;1.98;;;1.70;99.90;;;;;;5077834;28;20044;-34
2024/01/15 09:05:34;;;;;;;10.10;2.20;;;1.70;99.90;;;;;;5087020;28;20046;-36
2024/01/15 09:08:00;;;;;;;10.68;2.10;;;1.70;99.90;;;;;;5073424;28;20071;-36
2024/01/15 09:10:25;;;;;;;6.13;2.00;;;1.70;99.90;;;;;;5057754;28;20445;-40
2024/01/15 09:12:51;;;;;;;6.25;1.77;;;1.70;99.90;;;;;;5067607;28;20047;-37
2024/01/15 09:15:17;;;;;;;8.07;2.10;;;1.80;99.90;;;;;;5094851;28;20119;-37
2024/01/15 09:17:43;;;;;;;8.88;2.33;;;1.90;99.90;;;;;;5079365;28;20044;-39
2024/01/15 09:20:09;;;;;;;7.70;1.90;;;1.90;99.90;;;;;;5093087;28;20043;-35
2024/01/15 09:22:38;;;;;;;6.85;2.17;;;1.90;99.90;;;;;;5072164;28;20182;-34
2024/01/15 09:25:04;;;;;;;7.13;2.22;;;1.90;99.90;;;;;;5058728;28;20110;-35
2024/01/15 09:27:30;;;;;;;7.70;1.80;;;1.90;99.90;;;;;;5077362;28;20414;-41
2024/01/15 09:29:56;;;;;;;10.93;2.83;;;2.00;99.90;;;;;;5076790;28;20054;-41
2024/01/15 09:32:22;;;;;;;9.10;4.63;;;2.30;99.90;;;;;;5081464;28;20427;-40
2024/01/15 09:34:48;;;;;;;8.93;3.55;;;2.80;99.90;;;;;;5080085;28;20069;-40
2024/01/15 09:37:14;;;;;;;8.32;2.83;;;3.30;99.90;;;;;;5089402;28;20040;-42
2024/01/15 09:39:40;;;;;;;7.47;2.50;;;3.50;99.90;;;;;;5078527;28;20047;-39
2024/01/15 09:42:07;;;;;;;7.32;4.10;;;3.40;99.90;;;;;;5084687;28;20417;-41
2024/01/15 09:44:34;;;;;;;5.68;2.63;;;3.20;99.90;;;;;;5079314;28;20430;-40
2024/01/15 09:47:00;;;;;;;6.57;2.35;;;3.00;99.90;;;;;;5080743;28;20102;-42
2024/01/15 09:49:26;;;;;;;7.10;1.77;;;2.80;99.90;;;;;;5069507;28;20044;-38
2024/01/15 09:51:54;;;;;;;7.47;1.88;;;2.50;99.90;;;;;;5076041;28;20041;-42
2024/01/15 09:54:21;;;;;;;7.18;2.50;;;2.40;99.90;;;;;;5082841;28;20109;-40
2024/01/15 09:56:47;;;;;;;7.60;2.00;;;2.20;99.90;;;;;;5076459;28;20043;-41
2024/01/15 09:59:18;;;;;;;4.78;1.85;;;2.50;99.90;;;;;;5073959;28;20531;-39
2024/01/15 10:01:44;;;;;;;6.38;2.08;;;3.00;99.90;;;;;;5081195;28;20381;-42
2024/01/15 10:04:12;;;;;;;8.43;3.38;;;3.40;99.90;;;;;;5060534;28;20081;-43
2024/01/15 10:06:39;;;;;;;8.45;1.95;;;3.80;99.90;;;;;;5070279;28;20086;-42
2024/01/15 10:09:05;;;;;;;8.13;3.20;;;4.40;99.90;;;;;;5069040;28;20044;-42
2024/01/15 10:11:32;;;;;;;10.82;4.95;;;5.00;99.90;;;;;;5078728;28;20043;-38
2024/01/15 10:13:57;;;;;;;9.98;3.10;;;5.60;99.90;;;;;;5086186;28;20048;-41
2024/01/15 10:16:23;;;;;;;12.32;5.18;;;5.90;99.90;;;;;;5082359;28;20096;-43
2024/01/15 10:18:49;;;;;;;8.93;2.58;;;5.90;99.90;;;;;;5088193;28;20077;-43
2024/01/15 10:21:15;;;;;;;8.13;2.28;;;6.40;99.90;;;;;;5087633;28;20460;-43
2024/01/15 10:23:41;;;;;;;6.28;1.98;;;6.60;99.90;;;;;;5083599;28;20170;-42
2024/01/15 10:26:07;;;;;;;3.85;1.30;;;6.50;99.90;;;;;;5083596;28;20082;-40
2024/01/15 10:28:33;;;;;;;11.23;3.65;;;6.00;99.90;;;;;;5086055;28;20040;-43
2024/01/15 10:31:00;;;;;;;5.00;1.20;;;5.40;99.90;;;;;;5077275;28;20083;-43
2024/01/15 10:33:26;;;;;;;7.78;3.47;;;4.70;99.90;;;;;;5090789;28;20047;-42
2024/01/15 10:35:56;;;;;;;4.63;1.73;;;4.30;99.90;;;;;;5088181;28;20040;-44
2024/01/15 10:38:23;;;;;;;6.05;2.53;;;4.20;99.90;;;;;;5076808;28;20039;-41
2024/01/15 10:40:53;;;;;;;4.72;1.42;;;4.10;99.90;;;;;;5089573;28;20089;-42
2024/01/15 10:43:20;;;;;;;3.50;1.50;;;4.00;99.90;;;;;;5084783;28;20111;-43
2024/01/15 10:45:51;;;;;;;5.53;1.52;;;3.70;99.90;;;;;;5090028;28;20040;-40
2024/01/15 10:48:19;;;;;;;3.05;1.10;;;3.40;99.90;;;;;;5066724;28;20046;-43
2024/01/15 10:50:46;;;;;;;4.65;1.40;;;3.20;99.90;;;;;;5091256;28;20384;-40
2024/01/15 10:53:15;;;;;;;4.63;1.20;;;3.00;99.90;;;;;;5087312;28;20128;-41
2024/01/15 10:55:42;;;;;;;6.38;1.70;;;2.90;99.90;;;;;;5085949;28;20036;-41
2024/01/15 10:58:09;;;;;;;2.88;1.38;;;3.50;99.90;;;;;;5085400;28;20094;-42
2024/01/15 11:00:37;;;;;;;2.65;1.13;;;4.00;99.90;;;;;;5071431;28;20040;-41
2024/01/15 11:03:07;;;;;;;2.35;1.27;;;4.20;99.90;;;;;;5067453;28;20120;-40
2024/01/15 11:05:43;;;;;;;2.45;1.40;;;3.90;99.90;;;;;;5087442;28;20442;-33
2024/01/15 11:08:09;;;;;;;3.08;0.90;;;3.50;99.90;;;;;;5088139;28;20040;-33
2024/01/15 11:10:51;;;;;;;4.13;1.13;;;3.40;99.90;;;;;;5072501;28;20036;-35
2024/01/15 11:13:41;;;;;;;6.70;1.10;;;3.40;99.90;;;;;;5081550;28;20407;-34
2024/01/15 11:16:08;;;;;;;4.60;1.10;;;3.80;99.90;;;;;;5083375;28;20166;-33
2024/01/15 11:18:56;;;;;;;4.18;1.20;;;4.20;99.90;;;;;;5058817;28;20040;-34
2024/01/15 11:21:23;;;;;;;4.55;0.95;;;4.40;99.90;;;;;;5083670;28;20044;-33
2024/01/15 11:23:53;;;;;;;4.32;1.13;;;4.20;99.90;;;;;;5074944;28;20455;-34
2024/01/15 11:26:43;;;;;;;3.13;1.10;;;4.00;99.90;;;;;;5085333;28;20042;-33
2024/01/15 11:29:26;;;;;;;1.55;1.02;;;3.80;99.90;;;;;;5082699;28;20070;-34
2024/01/15 11:31:55;;;;;;;2.25;1.00;;;3.70;99.90;;;;;;5046320;28;20051;-33
2024/01/15 11:34:43;;;;;;;2.97;1.00;;;3.50;99.90;;;;;;5055791;28;20492;-34
2024/01/15 11:37:08;;;;;;;8.07;1.02;;;3.40;99.90;;;;;;5081168;28;20039;-33
2024/01/15 11:39:44;;;;;;;4.38;1.00;;;3.20;99.90;;;;;;5076688;28;20111;-34
2024/01/15 11:42:11;;;;;;;4.13;1.35;;;3.10;99.90;;;;;;5084313;28;20515;-33
2024/01/15 11:44:38;;;;;;;2.42;1.10;;;3.10;99.90;;;;;;5072125;28;20391;-34
2024/01/15 11:47:05;;;;;;;2.72;0.95;;;3.20;99.90;;;;;;5079453;28;20113;-34
2024/01/15 11:50:00;;;;;;;2.78;0.80;;;3.40;99.90;;;;;;5066637;28;20041;-33
2024/01/15 11:52:26;;;;;;;1.80;0.90;;;3.50;99.90;;;;;;5070270;28;20028;-33
2024/01/15 11:55:11;;;;;;;1.85;0.70;;;3.50;99.90;;;;;;5063362;28;20050;-34
2024/01/15 11:57:46;;;;;;;2.67;0.70;;;3.60;99.90;;;;;;5072014;28;20036;-34
2024/01/15 12:00:13;;;;;;;3.53;0.93;;;3.60;99.90;;;;;;5086518;28;20040;-34
2024/01/15 12:02:41;;;;;;;1.40;0.60;;;3.60;99.90;;;;;;5077028;28;20033;-32
2024/01/15 12:05:12;;;;;;;2.67;0.60;;;3.60;99.90;;;;;;5073524;28;20045;-33
2024/01/15 12:07:42;;;;;;;2.58;0.93;;;3.50;99.90;;;;;;5071945;28;20383;-34
2024/01/15 12:10:12;;;;;;;2.33;0.82;;;3.40;99.90;;;;;;5073442;28;20119;-33
2024/01/15 12:13:03;;;;;;;3.28;0.85;;;3.50;99.90;;;;;;5070322;28;20044;-34
2024/01/15 12:15:30;;;;;;;2.35;0.70;;;3.60;99.90;;;;;;5077939;28;20404;-33
2024/01/15 12:17:59;;;;;;;2.72;1.13;;;3.60;99.90;;;;;;5067797;28;20381;-34
2024/01/15 12:20:32;;;;;;;2.22;0.80;;;3.50;99.90;;;;;;5093003;28;20043;-33
2024/01/15 12:22:58;;;;;;;2.50;0.70;;;3.40;99.90;;;;;;5075060;28;20502;-34
2024/01/15 12:25:26;;;;;;;3.53;0.95;;;3.10;99.90;;;;;;5082776;28;20040;-33
2024/01/15 12:27:53;;;;;;;1.77;0.82;;;3.00;99.90;;;;;;5076432;28;20106;-34
2024/01/15 12:30:18;;;;;;;4.15;1.02;;;2.80;99.90;;;;;;5064406;28;20123;-33
2024/01/15 12:32:44;;;;;;;5.22;1.45;;;2.70;99.90;;;;;;5082536;28;20178;-33
2024/01/15 12:35:13;;;;;;;2.40;1.00;;;2.50;99.90;;;;;;5074409;28;20075;-34
2024/01/15 12:37:40;;;;;;;0.85;0.70;;;2.30;99.90;;;;;;5076301;28;20541;-33
2024/01/15 12:40:09;;;;;;;1.42;0.65;;;2.20;99.90;;;;;;5077788;28;20040;-35
2024/01/15 12:42:44;;;;;;;1.60;0.60;;;2.20;99.90;;;;;;5048120;28;20036;-33
2024/01/15 12:45:12;;;;;;;1.85;0.80;;;2.10;99.90;;;;;;5076733;28;20043;-35
2024/01/15 12:47:38;;;;;;;2.88;0.77;;;2.10;99.90;;;;;;5078773;28;20029;-33
2024/01/15 12:50:11;;;;;;;3.30;1.02;;;2.10;99.90;;;;;;5072929;28;20041;-33
2024/01/15 12:52:40;;;;;;;2.42;0.85;;;2.00;99.90;;;;;;5058418;28;20125;-33